Portada
METAR-TAF:

METAR-TAF

Aeropuertos :

Aeropuerto Internacional Antonio B. Won Pat

Agaña, Guam, Estados Unidos

latitud: 13-29N, longitud: 144-48E, altitud: 91 m

Observación

El informe se hizo hace 40 minutos, a las 09:54 UTC
Viento 7 kt del noreste
Temperatura 27°C
Humedad 74%
Presión 1012 hPa
Visibilidad: 16.1 km
Cielo despejado

METAR: PGUM 190954Z 05007KT 10SM CLR 27/22 A2988 RMK AO2 SLP111 T02670217

Hora: 20:34 (10:34 UTC)

Pronóstico

El informe se hizo hace 4 horas y 55 minutos, a las 05:39 UTC
Pronóstico válido del 19 a las 06 UTC al 20 a las 12 UTC
Viento 11 kt del este
Visibilidad: 10 km
Nubes dispersas a una altura de 2500 ft
Nubes dispersas a una altura de 4000 ft
chaparrones en las proximidades
A partir de las 19 a las 1400 UTC
Viento 10 kt del este
Visibilidad: 10 km
Escasas nubes a una altura de 2500 ft
Escasas nubes a una altura de 4000 ft

TAF: PGUM 190539Z 1906/2012 08011KT P6SM VCSH SCT025 SCT040 FM191400 08010KT P6SM FEW025 FEW040

Observaciones y pronósticos meteorológicos de más de 4000 aeropuertos (mensajes METAR y TAF).

Los puntos amarillos y rojos representan las estaciones disponibles.

Ponga el ratón en el punto deseado para ver el nombre de la estación.

Haga clic para ver las observaciones y los pronósticos meteorológicos.

Para cambiar el mapa : haga clic en los botones verdes con una cruz de color negro para hacer un zoom, en el botón verde con un guión para alejar o en las flechas verdes para mapas adyacentes.


METAR-TAF: